createdAt,value
2018-04-27T06:57:05.264Z,1904.00
2018-04-27T06:58:04.612Z,1900.00
2018-04-27T06:59:57.486Z,1900.00
2018-04-27T07:00:57.457Z,1872.00
2018-04-27T07:01:57.427Z,1920.00
2018-04-27T07:02:57.398Z,1936.00
2018-04-27T07:03:57.378Z,1952.00
2018-04-27T07:04:57.340Z,1964.00
2018-04-27T07:05:57.317Z,1972.00
2018-04-27T07:06:57.285Z,1944.00
2018-04-27T07:07:57.264Z,2028.00
2018-04-27T07:08:57.229Z,2036.00
2018-04-27T07:09:57.206Z,2056.00
2018-04-27T07:10:57.190Z,2048.00
2018-04-27T07:11:57.151Z,1876.00
2018-04-27T07:12:57.127Z,1972.00
2018-04-27T07:13:57.095Z,2024.00
2018-04-27T07:14:57.072Z,2020.00
2018-04-27T07:15:57.050Z,2004.00
2018-04-27T07:16:57.051Z,2012.00
2018-04-27T07:17:56.994Z,2048.00
2018-04-27T07:18:56.964Z,2004.00
2018-04-27T07:19:56.935Z,1968.00
2018-04-27T07:20:56.918Z,1988.00
2018-04-27T07:21:56.890Z,1948.00
2018-04-27T07:22:56.868Z,1968.00
2018-04-27T07:23:56.832Z,1984.00
2018-04-27T07:24:56.821Z,2004.00
2018-04-27T07:25:56.853Z,1844.00
2018-04-27T07:26:56.759Z,2052.00
2018-04-27T07:27:56.745Z,2032.00
2018-04-27T07:28:56.732Z,2024.00
2018-04-27T07:29:56.682Z,1996.00
2018-04-27T07:30:56.665Z,1980.00
2018-04-27T07:31:56.624Z,1844.00
2018-04-27T07:32:56.610Z,1880.00
2018-04-27T07:33:56.591Z,1956.00
2018-04-27T07:34:57.548Z,1956.00
2018-04-27T07:35:56.529Z,2032.00
2018-04-27T07:36:56.497Z,2044.00
2018-04-27T07:37:56.475Z,2032.00
2018-04-27T07:38:56.444Z,2000.00
2018-04-27T07:39:56.428Z,2028.00
2018-04-27T07:40:56.393Z,2068.00
2018-04-27T07:41:56.373Z,2068.00
2018-04-27T07:42:56.346Z,2048.00
2018-04-27T07:43:56.316Z,2036.00
2018-04-27T07:44:56.293Z,2032.00
2018-04-27T07:45:56.274Z,2024.00
2018-04-27T07:46:56.240Z,2036.00
2018-04-27T07:47:56.223Z,2024.00
2018-04-27T07:48:56.190Z,2032.00
2018-04-27T07:49:56.165Z,2036.00
2018-04-27T07:50:56.146Z,2052.00
2018-04-27T07:51:56.112Z,2072.00
2018-04-27T07:52:56.099Z,2080.00
2018-04-27T07:53:56.061Z,2064.00
2018-04-27T07:54:56.037Z,2076.00
2018-04-27T07:56:55.990Z,2132.00
2018-04-27T07:57:55.965Z,2144.00
2018-04-27T07:58:55.978Z,2140.00
2018-04-27T07:59:55.918Z,2120.00
2018-04-27T08:00:55.892Z,2116.00
2018-04-27T08:01:55.862Z,2096.00
2018-04-27T08:02:55.839Z,2084.00
2018-04-27T08:03:55.810Z,2040.00
2018-04-27T08:04:55.788Z,2020.00
2018-04-27T08:05:55.764Z,2028.00
2018-04-27T08:06:55.735Z,2016.00
2018-04-27T08:07:55.714Z,2008.00
2018-04-27T08:08:55.717Z,1992.00
2018-04-27T08:09:55.662Z,1972.00
2018-04-27T08:10:55.635Z,1988.00
2018-04-27T08:11:55.620Z,1980.00
2018-04-27T08:12:55.585Z,2040.00
2018-04-27T08:13:55.565Z,2060.00
2018-04-27T08:14:55.536Z,2080.00
2018-04-27T08:15:55.511Z,2092.00
2018-04-27T08:16:55.486Z,2120.00
2018-04-27T08:17:55.461Z,2152.00
2018-04-27T08:18:55.433Z,2184.00
2018-04-27T08:19:55.412Z,2196.00
2018-04-27T08:20:55.384Z,2204.00
2018-04-27T08:21:55.357Z,2256.00
2018-04-27T08:22:55.339Z,2296.00
2018-04-27T08:23:55.307Z,2344.00
2018-04-27T08:24:55.286Z,2400.00
2018-04-27T08:25:55.257Z,2436.00
2018-04-27T08:26:55.238Z,2512.00
2018-04-27T08:27:55.214Z,2580.00
2018-04-27T08:28:55.179Z,2664.00
2018-04-27T08:29:55.157Z,2768.00
2018-04-27T08:30:55.132Z,2812.00
2018-04-27T08:31:55.126Z,2868.00
2018-04-27T08:32:55.084Z,2968.00
2018-04-27T08:33:55.057Z,3024.00
2018-04-27T08:34:55.043Z,3092.00
2018-04-27T08:35:55.027Z,3156.00
2018-04-27T08:36:54.982Z,3220.00
2018-04-27T08:37:54.966Z,3272.00
2018-04-27T08:38:54.948Z,3288.00
2018-04-27T08:39:54.905Z,3308.00
2018-04-27T08:40:54.889Z,3328.00
2018-04-27T08:41:54.861Z,3376.00
2018-04-27T08:42:54.837Z,3420.00
2018-04-27T08:43:54.827Z,3448.00
2018-04-27T08:44:54.788Z,3476.00
2018-04-27T08:45:54.767Z,3496.00
2018-04-27T08:46:54.732Z,3528.00
2018-04-27T08:47:54.713Z,3548.00
2018-04-27T08:48:54.693Z,3576.00
2018-04-27T08:49:54.667Z,3616.00
2018-04-27T08:50:54.639Z,3640.00
2018-04-27T08:51:54.668Z,3644.00
2018-04-27T08:52:54.598Z,3672.00
2018-04-27T08:53:54.567Z,3676.00
2018-04-27T08:54:54.544Z,3664.00
2018-04-27T08:55:54.525Z,3652.00
2018-04-27T08:56:54.492Z,3644.00
2018-04-27T08:57:54.504Z,3664.00
2018-04-27T08:58:54.453Z,3704.00
2018-04-27T08:59:54.431Z,3736.00
2018-04-27T09:00:54.401Z,3756.00
2018-04-27T09:01:54.372Z,3776.00
2018-04-27T09:02:54.365Z,3804.00
2018-04-27T09:03:54.343Z,3844.00
2018-04-27T09:04:54.307Z,3864.00
2018-04-27T09:05:54.288Z,3884.00
2018-04-27T09:06:54.266Z,3896.00
2018-04-27T09:07:54.232Z,3892.00
2018-04-27T09:08:54.209Z,3936.00
2018-04-27T09:09:54.192Z,3980.00
2018-04-27T09:10:54.165Z,3992.00
2018-04-27T09:11:54.134Z,3988.00
2018-04-27T09:12:54.121Z,4008.00
2018-04-27T09:13:54.087Z,4004.00
2018-04-27T09:14:54.081Z,4032.00
2018-04-27T09:15:54.044Z,4084.00
2018-04-27T09:16:54.043Z,4128.00
2018-04-27T09:17:53.993Z,4068.00
2018-04-27T09:18:53.978Z,4012.00
2018-04-27T09:19:53.955Z,3932.00
2018-04-27T09:20:53.931Z,3964.00
2018-04-27T09:21:53.899Z,3980.00
2018-04-27T09:22:53.871Z,3972.00
2018-04-27T09:23:53.848Z,3948.00
2018-04-27T09:24:53.827Z,3984.00
2018-04-27T09:25:53.796Z,3976.00
2018-04-27T09:26:53.834Z,3964.00
2018-04-27T09:27:53.756Z,3920.00
2018-04-27T09:28:53.735Z,3844.00
2018-04-27T09:29:53.716Z,3832.00
2018-04-27T09:30:53.693Z,3852.00
2018-04-27T09:31:53.654Z,3900.00
2018-04-27T09:32:53.640Z,4088.00
2018-04-27T09:33:53.613Z,4048.00
2018-04-27T09:34:53.592Z,3968.00
2018-04-27T09:35:53.569Z,3916.00
2018-04-27T09:36:53.566Z,3960.00
2018-04-27T09:37:53.519Z,3888.00
2018-04-27T09:38:53.494Z,3820.00
2018-04-27T09:39:53.479Z,3824.00
2018-04-27T09:40:53.624Z,3908.00
2018-04-27T09:41:53.438Z,3972.00
2018-04-27T09:42:53.401Z,4036.00
2018-04-27T09:43:53.403Z,4136.00
2018-04-27T09:44:53.349Z,4200.00
2018-04-27T09:45:53.335Z,4216.00
2018-04-27T09:46:53.314Z,4220.00
2018-04-27T09:47:53.281Z,4200.00
2018-04-27T09:48:53.260Z,4156.00
2018-04-27T09:49:53.234Z,4148.00
2018-04-27T09:50:53.219Z,4216.00
2018-04-27T09:51:53.192Z,4276.00
2018-04-27T09:52:53.169Z,4276.00
2018-04-27T09:53:53.152Z,4248.00
2018-04-27T09:54:53.113Z,4300.00
2018-04-27T09:55:53.103Z,4180.00
2018-04-27T09:56:53.084Z,4152.00
2018-04-27T09:57:53.043Z,4216.00
2018-04-27T09:58:53.027Z,4192.00
2018-04-27T09:59:52.994Z,4136.00
2018-04-27T10:00:52.986Z,4092.00
2018-04-27T10:01:52.955Z,4128.00
2018-04-27T10:02:52.933Z,4144.00
2018-04-27T10:03:52.912Z,4160.00
2018-04-27T10:04:52.881Z,4148.00
2018-04-27T10:05:52.861Z,4168.00
2018-04-27T10:06:52.839Z,4168.00
2018-04-27T10:07:52.811Z,4176.00
2018-04-27T10:08:52.785Z,4168.00
2018-04-27T10:09:52.759Z,4176.00
2018-04-27T10:10:52.746Z,4160.00
2018-04-27T10:11:52.783Z,4176.00
2018-04-27T10:12:52.694Z,4180.00
2018-04-27T10:13:52.678Z,4192.00
2018-04-27T10:14:52.643Z,4212.00
2018-04-27T10:15:52.628Z,4208.00
2018-04-27T10:16:52.603Z,4228.00
2018-04-27T10:17:52.579Z,4204.00
2018-04-27T10:18:52.559Z,4188.00
2018-04-27T10:19:52.538Z,4196.00
2018-04-27T10:20:52.505Z,4228.00
2018-04-27T10:21:52.487Z,4212.00
2018-04-27T10:22:52.462Z,4184.00
2018-04-27T10:23:52.438Z,4120.00
2018-04-27T10:24:52.421Z,4100.00
2018-04-27T10:25:52.391Z,4116.00
2018-04-27T10:26:52.372Z,4140.00
2018-04-27T10:27:52.351Z,4108.00
2018-04-27T10:28:52.320Z,4104.00
2018-04-27T10:29:52.301Z,4108.00
2018-04-27T10:30:52.279Z,4104.00
2018-04-27T10:31:52.256Z,4128.00
2018-04-27T10:32:52.235Z,4084.00
2018-04-27T10:33:52.209Z,4088.00
2018-04-27T10:34:52.189Z,4036.00
2018-04-27T10:35:52.156Z,4064.00
2018-04-27T10:36:52.145Z,4136.00
2018-04-27T10:37:52.109Z,4164.00
2018-04-27T10:38:52.090Z,4108.00
2018-04-27T10:39:52.074Z,4096.00
2018-04-27T10:40:52.040Z,4060.00
2018-04-27T10:41:52.023Z,4056.00
2018-04-27T10:42:51.996Z,3956.00
2018-04-27T10:43:51.979Z,3768.00
2018-04-27T10:44:51.949Z,3648.00
2018-04-27T10:45:51.977Z,3596.00
2018-04-27T10:46:51.931Z,3548.00
2018-04-27T10:47:51.879Z,3556.00
2018-04-27T10:48:51.860Z,3532.00
2018-04-27T10:49:51.853Z,3588.00
2018-04-27T10:50:51.816Z,3572.00
2018-04-27T10:51:51.797Z,3600.00
2018-04-27T10:52:51.761Z,3684.00
2018-04-27T10:53:51.742Z,3696.00
2018-04-27T10:54:51.740Z,3672.00
2018-04-27T10:55:51.697Z,3708.00
2018-04-27T10:56:51.679Z,3752.00
2018-04-27T10:57:51.653Z,3680.00
2018-04-27T10:58:51.631Z,3872.00
2018-04-27T10:59:51.602Z,3956.00
2018-04-27T11:00:51.582Z,4016.00
2018-04-27T11:01:51.558Z,3920.00
2018-04-27T11:02:51.532Z,3940.00
2018-04-27T11:03:51.512Z,4024.00
2018-04-27T11:04:51.508Z,4040.00
2018-04-27T11:05:51.466Z,4108.00
2018-04-27T11:06:51.448Z,4140.00
2018-04-27T11:07:51.413Z,4220.00
2018-04-27T11:08:51.403Z,4240.00
2018-04-27T11:09:51.372Z,4128.00
2018-04-27T11:10:51.351Z,4184.00
2018-04-27T11:11:51.325Z,4448.00
2018-04-27T11:12:51.300Z,4468.00
2018-04-27T11:13:51.275Z,4480.00
2018-04-27T11:14:51.265Z,4472.00
2018-04-27T11:15:51.240Z,4224.00
2018-04-27T11:16:51.335Z,4284.00
2018-04-27T11:17:51.194Z,4312.00
2018-04-27T11:18:51.163Z,4192.00
2018-04-27T11:19:51.143Z,3904.00
2018-04-27T11:20:51.124Z,3752.00
2018-04-27T11:21:51.103Z,3712.00
2018-04-27T11:22:51.071Z,3644.00
2018-04-27T11:23:51.059Z,3532.00
2018-04-27T11:24:51.033Z,3656.00
2018-04-27T11:25:51.011Z,3924.00
2018-04-27T11:26:50.989Z,4088.00
2018-04-27T11:27:50.964Z,4064.00
2018-04-27T11:28:50.938Z,3920.00
2018-04-27T11:29:50.920Z,4076.00
2018-04-27T11:30:50.889Z,4000.00
2018-04-27T11:31:50.868Z,3740.00
2018-04-27T11:32:50.851Z,4020.00
2018-04-27T11:33:50.820Z,4312.00
2018-04-27T11:34:50.810Z,4220.00
2018-04-27T11:35:50.781Z,4160.00
2018-04-27T11:36:50.778Z,4152.00
2018-04-27T11:37:50.777Z,4136.00
2018-04-27T11:38:50.733Z,4184.00
2018-04-27T11:39:50.735Z,4252.00
2018-04-27T11:40:50.709Z,4332.00
2018-04-27T11:41:50.713Z,4272.00
2018-04-27T11:42:50.681Z,4168.00
2018-04-27T11:43:50.659Z,3968.00
2018-04-27T11:44:50.601Z,3704.00
2018-04-27T11:45:50.609Z,3632.00
2018-04-27T11:46:50.564Z,4004.00
2018-04-27T11:47:50.586Z,4168.00
2018-04-27T11:48:50.523Z,4084.00
2018-04-27T11:49:50.522Z,4104.00
2018-04-27T11:50:50.497Z,3760.00
2018-04-27T11:51:50.505Z,3768.00
2018-04-27T11:52:50.443Z,3980.00
2018-04-27T11:53:50.392Z,4100.00
2018-04-27T11:54:50.340Z,3948.00
2018-04-27T11:55:50.320Z,4076.00
2018-04-27T11:56:50.303Z,3908.00
2018-04-27T11:57:50.279Z,3712.00
2018-04-27T11:58:50.256Z,3436.00
2018-04-27T11:59:50.243Z,3184.00
2018-04-27T12:00:50.248Z,3316.00
2018-04-27T12:01:50.201Z,3376.00
2018-04-27T12:02:50.159Z,3288.00
2018-04-27T12:03:50.146Z,3088.00
2018-04-27T12:04:50.117Z,3024.00
2018-04-27T12:05:50.094Z,2808.00
2018-04-27T12:06:50.089Z,2632.00
2018-04-27T12:07:50.046Z,2824.00
2018-04-27T12:08:50.035Z,3100.00
2018-04-27T12:09:50.017Z,3500.00
2018-04-27T12:10:49.992Z,3972.00
2018-04-27T12:11:49.961Z,4008.00
2018-04-27T12:12:49.936Z,3644.00
2018-04-27T12:13:49.913Z,3824.00
2018-04-27T12:14:49.892Z,3648.00
2018-04-27T12:15:49.866Z,3456.00
2018-04-27T12:16:49.850Z,3320.00
2018-04-27T12:17:49.822Z,2952.00
2018-04-27T12:18:49.805Z,2844.00
2018-04-27T12:19:49.775Z,2904.00
2018-04-27T12:20:49.760Z,3608.00
2018-04-27T12:21:49.738Z,3900.00
2018-04-27T12:22:49.706Z,3776.00
2018-04-27T12:23:49.694Z,3560.00
2018-04-27T12:24:49.661Z,3780.00
2018-04-27T12:25:49.645Z,3888.00
2018-04-27T12:26:49.617Z,4020.00
2018-04-27T12:27:49.603Z,4188.00
2018-04-27T12:28:49.570Z,4112.00
2018-04-27T12:29:49.554Z,4248.00
2018-04-27T12:30:49.537Z,3932.00
2018-04-27T12:31:50.207Z,4292.00
2018-04-27T12:32:49.485Z,3984.00
2018-04-27T12:33:49.527Z,3840.00
2018-04-27T12:34:49.439Z,3904.00
2018-04-27T12:35:49.422Z,4568.00
2018-04-27T12:36:49.394Z,4520.00
2018-04-27T12:37:49.396Z,4704.00
2018-04-27T12:38:49.394Z,4448.00
2018-04-27T12:39:49.325Z,4360.00
2018-04-27T12:40:49.309Z,5048.00
2018-04-27T12:41:49.307Z,4320.00
2018-04-27T12:42:49.266Z,3948.00
2018-04-27T12:43:49.234Z,3548.00
2018-04-27T12:44:49.223Z,4016.00
2018-04-27T12:45:49.195Z,4116.00
2018-04-27T12:46:49.173Z,4152.00
2018-04-27T12:47:49.151Z,3900.00
2018-04-27T12:48:49.128Z,3664.00
2018-04-27T12:49:49.099Z,3872.00
2018-04-27T12:50:49.085Z,4208.00
2018-04-27T12:51:50.602Z,3984.00
2018-04-27T12:52:49.042Z,4112.00
2018-04-27T12:53:49.020Z,4292.00
2018-04-27T12:54:48.988Z,4596.00
2018-04-27T12:55:48.977Z,4416.00
2018-04-27T12:56:48.945Z,4652.00
2018-04-27T12:57:48.927Z,4584.00
2018-04-27T12:58:48.910Z,4692.00
2018-04-27T12:59:48.883Z,4724.00
2018-04-27T13:00:48.864Z,4680.00
2018-04-27T13:01:48.841Z,4268.00
2018-04-27T13:02:48.814Z,4260.00
2018-04-27T13:03:48.797Z,4972.00
2018-04-27T13:04:48.790Z,4788.00
2018-04-27T13:05:48.779Z,4348.00
2018-04-27T13:06:48.737Z,4248.00
2018-04-27T13:07:48.707Z,4112.00
2018-04-27T13:08:48.691Z,4448.00
2018-04-27T13:09:48.686Z,4820.00
2018-04-27T13:10:48.640Z,4632.00
2018-04-27T13:11:48.621Z,4240.00
2018-04-27T13:12:50.371Z,3956.00
2018-04-27T13:13:48.575Z,3520.00
2018-04-27T13:14:48.557Z,3768.00
2018-04-27T13:15:48.545Z,4140.00
2018-04-27T13:16:48.507Z,3664.00
2018-04-27T13:17:48.485Z,3712.00
2018-04-27T13:18:48.465Z,3904.00
2018-04-27T13:19:48.443Z,3832.00
2018-04-27T13:20:48.415Z,3824.00
2018-04-27T13:21:48.396Z,3856.00
2018-04-27T13:22:48.382Z,4192.00
2018-04-27T13:23:48.353Z,4464.00
2018-04-27T13:24:48.328Z,4220.00
2018-04-27T13:25:48.304Z,4204.00
2018-04-27T13:26:48.286Z,4636.00
2018-04-27T13:27:48.260Z,5132.00
2018-04-27T13:28:48.247Z,5536.00
2018-04-27T13:29:48.220Z,5468.00
2018-04-27T13:30:48.196Z,5100.00
2018-04-27T13:31:48.170Z,4688.00
2018-04-27T13:32:48.157Z,4744.00
2018-04-27T13:33:48.128Z,4776.00
2018-04-27T13:34:48.115Z,4556.00
2018-04-27T13:35:48.091Z,4008.00
2018-04-27T13:36:48.071Z,3740.00
2018-04-27T13:37:48.039Z,4068.00
2018-04-27T13:38:48.025Z,4756.00
2018-04-27T13:39:48.008Z,4684.00
2018-04-27T13:40:47.980Z,4224.00
2018-04-27T13:41:47.955Z,4268.00
2018-04-27T13:42:47.930Z,4212.00
2018-04-27T13:43:47.914Z,3548.00
2018-04-27T13:44:47.885Z,3520.00
2018-04-27T13:45:47.864Z,3328.00
2018-04-27T13:46:47.853Z,3480.00
2018-04-27T13:47:47.827Z,3828.00
2018-04-27T13:48:47.797Z,4348.00
2018-04-27T13:49:47.782Z,4772.00
2018-04-27T13:50:47.754Z,4956.00
2018-04-27T13:51:47.762Z,4900.00
2018-04-27T13:52:47.715Z,5292.00
2018-04-27T13:53:47.692Z,5068.00
2018-04-27T13:54:47.673Z,4596.00
2018-04-27T13:55:47.654Z,4200.00
2018-04-27T13:56:47.620Z,3996.00
2018-04-27T13:57:47.605Z,4264.00
2018-04-27T13:58:47.602Z,4292.00
2018-04-27T13:59:47.556Z,4340.00
2018-04-27T14:00:47.542Z,4348.00
2018-04-27T14:01:47.519Z,4200.00
2018-04-27T14:02:47.519Z,3928.00
2018-04-27T14:03:47.527Z,3864.00
2018-04-27T14:04:47.450Z,3616.00
2018-04-27T14:05:47.437Z,3620.00
2018-04-27T14:06:47.431Z,3728.00
2018-04-27T14:07:47.389Z,3832.00
2018-04-27T14:08:47.367Z,4236.00
2018-04-27T14:09:47.347Z,4356.00
2018-04-27T14:10:47.330Z,4628.00
2018-04-27T14:11:47.293Z,4908.00
2018-04-27T14:12:47.284Z,4804.00
2018-04-27T14:13:47.256Z,4752.00
2018-04-27T14:14:47.235Z,4888.00
2018-04-27T14:15:47.216Z,4432.00
2018-04-27T14:16:47.186Z,4280.00
2018-04-27T14:17:47.166Z,3900.00
2018-04-27T14:18:47.152Z,4044.00
2018-04-27T14:19:47.128Z,4048.00
2018-04-27T14:20:47.102Z,4276.00
2018-04-27T14:21:47.084Z,4100.00
2018-04-27T14:22:47.057Z,3812.00
2018-04-27T14:23:47.035Z,3508.00
2018-04-27T14:24:47.044Z,3316.00
2018-04-27T14:25:46.994Z,3136.00
2018-04-27T14:26:46.992Z,3072.00
2018-04-27T14:27:46.950Z,2916.00
2018-04-27T14:28:46.923Z,2464.00
2018-04-27T14:29:46.968Z,2132.00
2018-04-27T14:30:46.882Z,2468.00
2018-04-27T14:31:46.864Z,2916.00
2018-04-27T14:32:46.846Z,3068.00
2018-04-27T14:33:46.834Z,3040.00
2018-04-27T14:34:46.800Z,3244.00
2018-04-27T14:35:46.786Z,3640.00
2018-04-27T14:36:46.758Z,4032.00
2018-04-27T14:37:46.742Z,4160.00
2018-04-27T14:38:46.711Z,4896.00
2018-04-27T14:39:46.691Z,5244.00
2018-04-27T14:40:46.672Z,5112.00
2018-04-27T14:41:47.687Z,4540.00
2018-04-27T14:42:46.705Z,3904.00
2018-04-27T14:43:48.218Z,3648.00
2018-04-27T14:44:46.667Z,3280.00
2018-04-27T14:45:46.649Z,3252.00
2018-04-27T14:46:46.619Z,3196.00
2018-04-27T14:47:46.611Z,3064.00
2018-04-27T14:48:46.582Z,3172.00
2018-04-27T14:49:46.567Z,2624.00
2018-04-27T14:50:46.525Z,2332.00
2018-04-27T14:51:46.432Z,2188.00
2018-04-27T14:52:46.419Z,2108.00
2018-04-27T14:53:46.434Z,2048.00
2018-04-27T14:54:46.364Z,2128.00
2018-04-27T14:55:46.358Z,2280.00
2018-04-27T14:56:46.327Z,2276.00
2018-04-27T14:57:46.352Z,2272.00
2018-04-27T14:58:46.311Z,2680.00
2018-04-27T14:59:46.270Z,2688.00
2018-04-27T15:00:46.225Z,2384.00
2018-04-27T15:01:46.266Z,2360.00
2018-04-27T15:02:46.196Z,2760.00
2018-04-27T15:03:46.157Z,2700.00
2018-04-27T15:04:46.146Z,2320.00
2018-04-27T15:05:46.115Z,2268.00
2018-04-27T15:06:46.101Z,2652.00
2018-04-27T15:07:46.075Z,2652.00
2018-04-27T15:08:46.049Z,2416.00
2018-04-27T15:09:46.035Z,2764.00
2018-04-27T15:10:46.000Z,2664.00
2018-04-27T15:11:45.982Z,2328.00
2018-04-27T15:12:45.964Z,2300.00
2018-04-27T15:13:45.941Z,2688.00
2018-04-27T15:14:45.918Z,2724.00
2018-04-27T15:15:45.890Z,2404.00
2018-04-27T15:16:45.883Z,2672.00
2018-04-27T15:17:45.848Z,2248.00
2018-04-27T15:18:45.829Z,2288.00
2018-04-27T15:19:45.808Z,2252.00
2018-04-27T15:20:45.777Z,2216.00
2018-04-27T15:21:45.783Z,2184.00
2018-04-27T15:22:45.736Z,2200.00
2018-04-27T15:23:45.738Z,2284.00
2018-04-27T15:24:45.695Z,2092.00
2018-04-27T15:25:45.666Z,2464.00
2018-04-27T15:26:45.653Z,2712.00
2018-04-27T15:27:45.630Z,2400.00
2018-04-27T15:28:45.603Z,2432.00
2018-04-27T15:29:45.586Z,2300.00
2018-04-27T15:30:45.554Z,2212.00
2018-04-27T15:31:45.541Z,2644.00
2018-04-27T15:32:45.510Z,2476.00
2018-04-27T15:33:45.560Z,2632.00
2018-04-27T15:34:45.474Z,2664.00
2018-04-27T15:35:45.445Z,2220.00
2018-04-27T15:36:45.431Z,2068.00
2018-04-27T15:37:45.398Z,2096.00
2018-04-27T15:38:45.385Z,2288.00
2018-04-27T15:39:45.354Z,2264.00
2018-04-27T15:40:45.340Z,2260.00
2018-04-27T15:41:45.340Z,2244.00
2018-04-27T15:42:45.285Z,2276.00
2018-04-27T15:43:45.272Z,2252.00
2018-04-27T15:44:45.242Z,2184.00
2018-04-27T15:45:45.218Z,2184.00
2018-04-27T15:46:45.208Z,2128.00
2018-04-27T15:47:45.181Z,2092.00
2018-04-27T15:48:45.163Z,2036.00
2018-04-27T15:49:45.132Z,2064.00
2018-04-27T15:50:45.107Z,2140.00
2018-04-27T15:51:45.103Z,2036.00
2018-04-27T15:52:45.062Z,1980.00
2018-04-27T15:53:45.042Z,2000.00
2018-04-27T15:54:45.023Z,1940.00
2018-04-27T15:55:44.998Z,1920.00
2018-04-27T15:56:44.978Z,1916.00
2018-04-27T15:57:44.954Z,1792.00
2018-04-27T15:58:44.932Z,1776.00
2018-04-27T15:59:44.911Z,1720.00
2018-04-27T16:00:44.885Z,1744.00
2018-04-27T16:01:44.871Z,1740.00
2018-04-27T16:02:44.844Z,1732.00
2018-04-27T16:03:44.825Z,1716.00
2018-04-27T16:04:44.798Z,1680.00
2018-04-27T16:05:44.782Z,1672.00
2018-04-27T16:06:44.747Z,1832.00
2018-04-27T16:07:44.730Z,1880.00
2018-04-27T16:08:44.705Z,1840.00
2018-04-27T16:09:44.680Z,1764.00
2018-04-27T16:10:44.666Z,1692.00
2018-04-27T16:11:44.633Z,1608.00
2018-04-27T16:12:44.620Z,1648.00
2018-04-27T16:13:44.596Z,1676.00
2018-04-27T16:14:44.689Z,1668.00
2018-04-27T16:15:44.552Z,1740.00
2018-04-27T16:16:44.520Z,1868.00
2018-04-27T16:17:44.503Z,1964.00
2018-04-27T16:18:44.485Z,1716.00
2018-04-27T16:19:44.453Z,1584.00
2018-04-27T16:20:44.495Z,1620.00
2018-04-27T16:21:44.410Z,1924.00
2018-04-27T16:22:44.395Z,2256.00
2018-04-27T16:23:44.368Z,2460.00
2018-04-27T16:24:44.347Z,2588.00
2018-04-27T16:25:44.318Z,2600.00
2018-04-27T16:26:44.318Z,2404.00
2018-04-27T16:27:44.279Z,2208.00
2018-04-27T16:28:44.248Z,2196.00
2018-04-27T16:29:44.243Z,2308.00
2018-04-27T16:30:44.208Z,2460.00
2018-04-27T16:31:45.147Z,2356.00
2018-04-27T16:32:44.169Z,2260.00
2018-04-27T16:33:44.144Z,2224.00
2018-04-27T16:34:44.113Z,2144.00
2018-04-27T16:35:44.095Z,2088.00
2018-04-27T16:36:44.068Z,2092.00
2018-04-27T16:37:44.073Z,1936.00
2018-04-27T16:38:44.032Z,1860.00
2018-04-27T16:39:44.001Z,1800.00
2018-04-27T16:40:43.987Z,1736.00
2018-04-27T16:41:44.024Z,1768.00
2018-04-27T16:42:43.940Z,1828.00
2018-04-27T16:43:43.909Z,1884.00
2018-04-27T16:44:43.896Z,1952.00
2018-04-27T16:45:43.876Z,2056.00
2018-04-27T16:46:43.886Z,2032.00
2018-04-27T16:47:43.847Z,1928.00
2018-04-27T16:48:43.798Z,1704.00
2018-04-27T16:49:43.772Z,1444.00
2018-04-27T16:50:43.763Z,1352.00
2018-04-27T16:51:43.736Z,1372.00
2018-04-27T16:52:43.716Z,1464.00
2018-04-27T16:53:43.694Z,1500.00
2018-04-27T16:54:43.663Z,1788.00
2018-04-27T16:55:43.649Z,1732.00
2018-04-27T16:56:43.618Z,1624.00
2018-04-27T16:57:43.604Z,4324.00
2018-04-27T16:58:43.571Z,1516.00
2018-04-27T16:59:43.560Z,1520.00
2018-04-27T17:00:43.530Z,1560.00
2018-04-27T17:01:43.548Z,1492.00
2018-04-27T17:02:43.490Z,1508.00
2018-04-27T17:03:43.464Z,1548.00
2018-04-27T17:04:43.447Z,1628.00
2018-04-27T17:05:43.429Z,1820.00
2018-04-27T17:06:43.395Z,1828.00
2018-04-27T17:07:43.383Z,2200.00
2018-04-27T17:08:43.354Z,2080.00
2018-04-27T17:09:43.330Z,2324.00
2018-04-27T17:10:43.312Z,2384.00
2018-04-27T17:11:43.292Z,2212.00
2018-04-27T17:12:43.261Z,2276.00
2018-04-27T17:13:43.234Z,2292.00
2018-04-27T17:14:43.224Z,2392.00
2018-04-27T17:15:43.200Z,2344.00
2018-04-27T17:16:43.175Z,1960.00
2018-04-27T17:17:43.159Z,2412.00
2018-04-27T17:18:43.153Z,2272.00
2018-04-27T17:19:43.107Z,1988.00
2018-04-27T17:20:43.087Z,1940.00
2018-04-27T17:21:43.064Z,1672.00
2018-04-27T17:22:43.050Z,1560.00
2018-04-27T17:23:43.015Z,1444.00
2018-04-27T17:24:42.997Z,1632.00
2018-04-27T17:25:42.971Z,1696.00
2018-04-27T17:26:42.953Z,1808.00
2018-04-27T17:27:42.931Z,1808.00
2018-04-27T17:28:43.000Z,1760.00
2018-04-27T17:29:42.888Z,1788.00
2018-04-27T17:30:42.864Z,1876.00
2018-04-27T17:31:44.352Z,1884.00
2018-04-27T17:32:42.818Z,1836.00
2018-04-27T17:33:42.789Z,1760.00
2018-04-27T17:34:42.779Z,1732.00
2018-04-27T17:35:42.752Z,1720.00
2018-04-27T17:36:42.817Z,1688.00
2018-04-27T17:37:42.700Z,1604.00
2018-04-27T17:38:42.688Z,1536.00
2018-04-27T17:39:42.679Z,1476.00
2018-04-27T17:40:42.645Z,1432.00
2018-04-27T17:41:42.618Z,1520.00
2018-04-27T17:42:42.611Z,1440.00
2018-04-27T17:43:42.571Z,1392.00
2018-04-27T17:44:42.550Z,1468.00
2018-04-27T17:45:42.597Z,1364.00
2018-04-27T17:46:42.504Z,1348.00
2018-04-27T17:47:42.495Z,1324.00
2018-04-27T17:48:42.555Z,1248.00
2018-04-27T17:49:42.441Z,1236.00
2018-04-27T17:50:42.456Z,1236.00
2018-04-27T17:51:42.384Z,1200.00
2018-04-27T17:52:42.442Z,1168.00
2018-04-27T17:53:42.343Z,1136.00
2018-04-27T17:54:42.315Z,1092.00
2018-04-27T17:55:42.300Z,1036.00
2018-04-27T17:56:42.276Z,992.00
2018-04-27T17:57:42.248Z,952.00
2018-04-27T17:58:42.231Z,924.00
2018-04-27T17:59:42.206Z,900.00
2018-04-27T18:00:42.182Z,888.00
2018-04-27T18:01:42.161Z,888.00
2018-04-27T18:02:42.136Z,884.00
2018-04-27T18:03:42.111Z,876.00
2018-04-27T18:04:42.096Z,860.00
2018-04-27T18:05:42.076Z,824.00
2018-04-27T18:06:42.053Z,780.00
2018-04-27T18:07:42.027Z,732.00
2018-04-27T18:08:42.001Z,684.00
2018-04-27T18:09:41.979Z,648.00
2018-04-27T18:10:41.957Z,616.00
2018-04-27T18:11:42.029Z,592.00
2018-04-27T18:12:41.905Z,568.00
2018-04-27T18:13:41.884Z,548.00
2018-04-27T18:14:41.862Z,528.00
2018-04-27T18:15:41.853Z,504.00
2018-04-27T18:16:41.898Z,484.00
2018-04-27T18:17:41.946Z,464.00
2018-04-27T18:18:41.770Z,444.00
2018-04-27T18:19:41.747Z,424.00
2018-04-27T18:20:41.730Z,404.00
2018-04-27T18:21:41.696Z,384.00
2018-04-27T18:22:41.686Z,368.00
2018-04-27T18:23:41.654Z,348.00
2018-04-27T18:24:41.629Z,332.00
2018-04-27T18:25:41.643Z,316.00
2018-04-27T18:26:41.590Z,300.00
2018-04-27T18:27:41.691Z,288.00
2018-04-27T18:28:41.537Z,268.00
2018-04-27T18:29:41.514Z,252.00
2018-04-27T18:30:41.512Z,240.00
2018-04-27T18:31:41.482Z,228.00
2018-04-27T18:32:41.474Z,208.00
2018-04-27T18:33:41.431Z,196.00
2018-04-27T18:34:41.400Z,180.00
2018-04-27T18:35:41.466Z,168.00
2018-04-27T18:36:41.360Z,156.00
2018-04-27T18:37:41.332Z,148.00
2018-04-27T18:38:41.308Z,136.00
2018-04-27T18:39:41.281Z,132.00
2018-04-27T18:40:41.281Z,124.00
2018-04-27T18:41:41.229Z,112.00
2018-04-27T18:42:41.263Z,104.00
2018-04-27T18:43:41.243Z,96.00
2018-04-27T18:44:41.191Z,88.00
2018-04-27T18:45:41.144Z,84.00
2018-04-27T18:46:41.124Z,76.00
2018-04-27T18:47:41.091Z,72.00
2018-04-27T18:48:41.071Z,68.00
2018-04-27T18:49:41.043Z,60.00
2018-04-27T18:50:41.042Z,56.00
2018-04-27T18:51:41.002Z,52.00
2018-04-27T18:52:40.983Z,48.00
2018-04-27T18:53:40.955Z,40.00
2018-04-27T18:54:40.937Z,36.00
2018-04-27T18:55:40.899Z,32.00
2018-04-27T18:56:40.885Z,28.00
2018-04-27T18:57:40.866Z,24.00
2018-04-27T18:58:40.834Z,24.00
2018-04-27T18:59:40.808Z,20.00
2018-04-27T19:00:40.790Z,16.00
2018-04-27T19:01:40.756Z,16.00
2018-04-27T19:02:40.744Z,12.00
2018-04-27T19:03:40.713Z,8.00
2018-04-27T19:04:40.689Z,12.00
2018-04-27T19:05:40.666Z,8.00
2018-04-27T19:06:40.651Z,8.00